Time;durP1;ratioP1;P1;durP2;ratioP2;P2;SDS_P1;SDS_P2;PMS_P1;PMS_P2;Temp;Humidity;BMP_temperature;BMP_pressure;BME280_temperature;BME280_humidity;BME280_pressure;Samples;Min_cycle;Max_cycle;Signal;HPM_P1;HPM_P2
2022/12/18 00:01:24;;;;;;;0.70;0.70;;;;;;;-6.00;96.16;98635.22;4885712;29;20091;-86
2022/12/18 00:03:52;;;;;;;0.65;0.65;;;;;;;-5.96;96.34;98631.31;4900689;29;20159;-89
2022/12/18 00:06:20;;;;;;;0.75;0.75;;;;;;;-5.89;96.18;98639.41;4900506;29;20053;-88
2022/12/18 00:08:47;;;;;;;0.80;0.80;;;;;;;-5.92;96.07;98623.94;4897134;29;20625;-89
2022/12/18 00:11:17;;;;;;;0.70;0.70;;;;;;;-5.90;96.31;98624.59;4898857;29;20120;-89
2022/12/18 00:13:44;;;;;;;0.70;0.70;;;;;;;-5.88;96.26;98622.66;4904503;29;20116;-87
2022/12/18 00:16:14;;;;;;;0.80;0.80;;;;;;;-5.90;96.17;98619.34;4915290;29;20053;-90
2022/12/18 00:18:42;;;;;;;0.70;0.70;;;;;;;-5.95;96.26;98617.22;4901662;29;20056;-89
2022/12/18 00:21:11;;;;;;;0.73;0.73;;;;;;;-5.94;96.14;98616.22;4905855;29;20048;-90
2022/12/18 00:23:38;;;;;;;0.80;0.80;;;;;;;-5.93;95.90;98609.13;4899257;29;20060;-90
2022/12/18 00:26:11;;;;;;;0.70;0.70;;;;;;;-5.95;95.85;98609.34;4900340;29;20151;-90
2022/12/18 00:28:38;;;;;;;0.60;0.60;;;;;;;-5.97;95.58;98603.41;4902691;29;20108;-90
2022/12/18 00:31:08;;;;;;;0.70;0.70;;;;;;;-6.00;95.39;98598.44;4897458;29;20055;-89
2022/12/18 00:33:38;;;;;;;0.90;0.90;;;;;;;-5.96;95.64;98604.22;4882741;29;20136;-90
2022/12/18 00:36:33;;;;;;;0.90;0.90;;;;;;;-6.00;95.54;98585.31;4897820;29;20048;-88
2022/12/18 00:39:02;;;;;;;0.80;0.80;;;;;;;-6.00;95.33;98581.84;4899706;29;20076;-89
2022/12/18 00:44:32;;;;;;;0.70;0.70;;;;;;;-6.03;95.35;98580.31;4897587;29;20056;-88
2022/12/18 00:46:59;;;;;;;0.68;0.68;;;;;;;-5.97;95.30;98568.41;4898612;29;20083;-88
2022/12/18 00:49:26;;;;;;;0.77;0.77;;;;;;;-5.97;95.21;98566.63;4897937;29;20049;-88
2022/12/18 00:51:54;;;;;;;0.80;0.80;;;;;;;-6.01;95.07;98554.72;4898911;29;20049;-89
2022/12/18 00:54:21;;;;;;;0.68;0.68;;;;;;;-5.98;94.82;98540.47;4912566;29;20055;-89
2022/12/18 00:56:49;;;;;;;0.80;0.80;;;;;;;-5.94;94.74;98552.34;4912617;29;20436;-88
2022/12/18 00:59:17;;;;;;;0.82;0.82;;;;;;;-5.98;94.59;98543.91;4899274;29;20645;-87
2022/12/18 01:01:46;;;;;;;0.80;0.80;;;;;;;-6.03;94.41;98534.84;4906974;29;20143;-88
2022/12/18 01:04:14;;;;;;;0.70;0.70;;;;;;;-5.98;94.09;98546.53;4891758;29;20048;-89
2022/12/18 01:06:45;;;;;;;1.00;1.00;;;;;;;-5.96;94.43;98541.16;4904128;29;20076;-90
2022/12/18 01:09:12;;;;;;;0.95;0.95;;;;;;;-5.94;94.31;98544.47;4898323;29;20482;-90
2022/12/18 01:11:39;;;;;;;0.80;0.80;;;;;;;-5.94;94.17;98541.84;4901942;29;20080;-88
2022/12/18 01:14:06;;;;;;;0.73;0.73;;;;;;;-5.96;94.14;98546.41;4897628;29;20088;-88
2022/12/18 01:16:36;;;;;;;0.73;0.73;;;;;;;-5.99;93.76;98523.06;4897632;29;20419;-89
2022/12/18 01:19:04;;;;;;;0.65;0.65;;;;;;;-5.99;93.86;98531.78;4898082;29;20050;-89
2022/12/18 01:21:31;;;;;;;0.80;0.80;;;;;;;-5.93;93.93;98546.88;4911872;29;20049;-88
2022/12/18 01:24:03;;;;;;;0.80;0.80;;;;;;;-5.92;94.17;98545.94;4898637;29;20052;-89
2022/12/18 01:26:30;;;;;;;0.68;0.68;;;;;;;-5.89;93.97;98542.19;4912487;29;20081;-88
2022/12/18 01:28:58;;;;;;;0.70;0.70;;;;;;;-5.86;93.97;98535.78;4898041;29;20415;-89
2022/12/18 01:31:28;;;;;;;0.70;0.70;;;;;;;-5.89;93.98;98547.44;4897163;29;20063;-89
2022/12/18 01:33:56;;;;;;;0.80;0.80;;;;;;;-5.92;93.78;98543.31;4897865;29;20049;-89
2022/12/18 01:36:28;;;;;;;0.60;0.60;;;;;;;-5.95;93.65;98532.28;4898176;29;20104;-87
2022/12/18 01:38:56;;;;;;;0.93;0.93;;;;;;;-5.95;93.76;98535.75;4912372;29;20096;-88
2022/12/18 01:41:26;;;;;;;0.90;0.90;;;;;;;-5.99;94.00;98515.19;4898245;29;20579;-88
2022/12/18 01:43:58;;;;;;;0.68;0.68;;;;;;;-5.98;93.79;98527.34;4896846;29;20053;-89
2022/12/18 01:46:26;;;;;;;0.80;0.80;;;;;;;-5.97;93.92;98527.19;4913520;29;20080;-89
2022/12/18 01:48:58;;;;;;;0.68;0.68;;;;;;;-6.01;93.71;98536.34;4913012;29;20044;-89
2022/12/18 01:51:29;;;;;;;0.80;0.80;;;;;;;-6.00;94.06;98532.75;4897447;29;20081;-89
2022/12/18 01:53:57;;;;;;;0.65;0.65;;;;;;;-5.96;94.20;98536.72;4896858;29;20415;-89
2022/12/18 01:56:24;;;;;;;0.70;0.70;;;;;;;-5.98;93.94;98533.41;4880655;29;20567;-88
2022/12/18 01:58:58;;;;;;;0.60;0.60;;;;;;;-6.02;94.05;98521.56;4910726;29;20044;-88
2022/12/18 02:01:26;;;;;;;0.77;0.77;;;;;;;-6.04;93.95;98525.31;4895598;29;20056;-89
2022/12/18 02:03:53;;;;;;;0.60;0.60;;;;;;;-6.04;93.99;98528.78;4896879;29;20149;-90
2022/12/18 02:06:29;;;;;;;0.70;0.70;;;;;;;-6.02;93.64;98529.44;4911780;29;20567;-90
2022/12/18 02:09:10;;;;;;;0.80;0.80;;;;;;;-6.01;93.81;98532.91;4879839;29;20061;-88
2022/12/18 02:11:53;;;;;;;0.75;0.75;;;;;;;-6.02;93.83;98523.38;4910902;29;20080;-89
2022/12/18 02:14:44;;;;;;;0.63;0.63;;;;;;;-6.05;93.81;98523.66;4895319;29;20063;-90
2022/12/18 02:17:16;;;;;;;0.68;0.68;;;;;;;-6.05;93.60;98510.50;4895292;29;20152;-88
2022/12/18 02:20:03;;;;;;;0.70;0.70;;;;;;;-6.03;93.51;98512.00;4895473;29;20108;-90
2022/12/18 02:22:55;;;;;;;0.82;0.82;;;;;;;-6.04;93.31;98517.44;4911454;29;20059;-89
2022/12/18 02:25:29;;;;;;;0.80;0.80;;;;;;;-6.09;93.14;98511.81;4898399;29;20112;-88
2022/12/18 02:27:59;;;;;;;0.75;0.75;;;;;;;-6.11;93.03;98506.69;4900046;29;20067;-89
2022/12/18 02:30:30;;;;;;;0.93;0.93;;;;;;;-6.13;93.17;98512.13;4899542;29;20088;-89
2022/12/18 02:33:00;;;;;;;0.82;0.82;;;;;;;-6.10;93.06;98513.63;4899046;29;20197;-89
2022/12/18 02:35:29;;;;;;;0.80;0.80;;;;;;;-6.12;93.06;98503.25;4883805;29;20157;-89
2022/12/18 02:37:58;;;;;;;0.80;0.80;;;;;;;-6.05;93.24;98523.66;4898714;29;20056;-89
2022/12/18 02:40:30;;;;;;;0.80;0.80;;;;;;;-6.07;92.96;98529.06;4915581;29;20060;-89
2022/12/18 02:43:10;;;;;;;0.80;0.80;;;;;;;-6.04;92.98;98527.94;4899620;29;20115;-89
2022/12/18 02:45:49;;;;;;;0.80;0.80;;;;;;;-6.02;92.96;98526.00;4916421;29;20056;-89
2022/12/18 02:48:23;;;;;;;0.98;0.98;;;;;;;-6.07;92.72;98520.38;4925278;29;20088;-89
2022/12/18 02:51:01;;;;;;;0.70;0.70;;;;;;;-6.11;92.49;98507.50;4914561;29;20504;-89
2022/12/18 02:53:43;;;;;;;0.85;0.85;;;;;;;-6.19;92.65;98498.75;4914737;29;20076;-89
2022/12/18 02:56:19;;;;;;;0.88;0.88;;;;;;;-6.24;92.45;98506.25;4898938;29;20131;-88
2022/12/18 02:59:30;;;;;;;0.77;0.77;;;;;;;-6.18;92.57;98510.91;4913453;29;20072;-89
2022/12/18 03:01:58;;;;;;;0.73;0.73;;;;;;;-6.21;92.31;98504.13;4847489;29;20589;-89
2022/12/18 03:04:32;;;;;;;0.70;0.70;;;;;;;-6.25;92.19;98515.94;4879575;29;20065;-89
2022/12/18 03:07:04;;;;;;;0.75;0.75;;;;;;;-6.26;92.47;98506.38;4879103;29;20053;-91
2022/12/18 03:09:35;;;;;;;0.90;0.90;;;;;;;-6.25;92.38;98515.94;4879658;29;20064;-89
2022/12/18 03:12:24;;;;;;;0.80;0.80;;;;;;;-6.31;92.41;98511.25;4879960;29;20049;-89
2022/12/18 03:15:14;;;;;;;0.70;0.70;;;;;;;-6.29;92.34;98506.69;4881665;29;20051;-90
2022/12/18 03:17:50;;;;;;;0.77;0.77;;;;;;;-6.33;92.31;98500.06;4850992;29;20049;-90
2022/12/18 03:20:20;;;;;;;0.75;0.75;;;;;;;-6.33;92.47;98513.22;4850156;29;20507;-91
2022/12/18 03:22:52;;;;;;;0.70;0.70;;;;;;;-6.36;92.55;98511.72;4879732;29;20088;-89
2022/12/18 03:25:20;;;;;;;0.85;0.85;;;;;;;-6.38;92.34;98516.31;4864663;29;20151;-91
2022/12/18 03:27:49;;;;;;;0.82;0.82;;;;;;;-6.39;92.58;98519.06;4866165;29;20072;-90
2022/12/18 03:30:17;;;;;;;0.80;0.80;;;;;;;-6.38;92.45;98520.72;4883081;29;20243;-93
2022/12/18 03:32:52;;;;;;;0.70;0.70;;;;;;;-6.39;92.68;98513.81;4895139;29;20052;-91
2022/12/18 03:35:32;;;;;;;0.70;0.70;;;;;;;-6.42;92.48;98507.06;4891432;29;20057;-91
2022/12/18 03:37:59;;;;;;;0.70;0.70;;;;;;;-6.42;92.52;98514.13;4887985;29;20056;-93
2022/12/18 03:40:42;;;;;;;0.80;0.80;;;;;;;-6.40;92.45;98496.44;4920816;29;20080;-94
2022/12/18 03:43:44;;;;;;;1.00;1.00;;;;;;;-6.38;92.32;98499.69;4919214;29;20061;-93
2022/12/18 03:46:38;;;;;;;0.70;0.70;;;;;;;-6.43;91.98;98512.44;4916799;29;20048;-90
2022/12/18 03:49:39;;;;;;;0.80;0.80;;;;;;;-6.46;91.95;98520.63;4899108;29;20067;-87
2022/12/18 03:52:16;;;;;;;0.70;0.70;;;;;;;-6.49;91.85;98523.56;4862553;29;20257;-90
2022/12/18 03:54:45;;;;;;;0.60;0.60;;;;;;;-6.57;91.74;98524.28;4865585;29;20153;-92
2022/12/18 03:57:19;;;;;;;0.70;0.70;;;;;;;-6.52;91.55;98515.97;4849507;29;20057;-90
2022/12/18 03:59:55;;;;;;;0.70;0.70;;;;;;;-6.44;91.74;98521.31;4864624;29;20063;-90
2022/12/18 04:02:25;;;;;;;0.80;0.80;;;;;;;-6.44;91.66;98521.31;4863967;29;20053;-89
2022/12/18 04:04:57;;;;;;;0.70;0.70;;;;;;;-6.45;91.61;98528.38;4880738;29;20049;-92
2022/12/18 04:07:25;;;;;;;0.70;0.70;;;;;;;-6.48;91.24;98547.06;4871819;29;20091;-89
2022/12/18 04:09:56;;;;;;;0.80;0.80;;;;;;;-6.49;91.34;98561.13;4898874;29;20057;-91
2022/12/18 04:12:26;;;;;;;0.88;0.88;;;;;;;-6.43;91.49;98570.22;4896861;29;20048;-89
2022/12/18 04:14:53;;;;;;;0.60;0.60;;;;;;;-6.46;91.52;98575.78;4901008;29;20045;-87
2022/12/18 04:17:21;;;;;;;0.60;0.60;;;;;;;-6.49;91.47;98568.19;4874196;29;20056;-90
2022/12/18 04:19:49;;;;;;;0.80;0.80;;;;;;;-6.52;91.17;98576.38;4873823;29;20146;-88
2022/12/18 04:22:16;;;;;;;0.68;0.68;;;;;;;-6.51;91.17;98581.44;4862649;29;20072;-89
2022/12/18 04:24:47;;;;;;;0.73;0.73;;;;;;;-6.48;91.27;98598.72;4862729;29;20510;-88
2022/12/18 04:27:23;;;;;;;0.68;0.68;;;;;;;-6.48;91.65;98593.47;4877857;29;20643;-87
2022/12/18 04:29:50;;;;;;;0.80;0.80;;;;;;;-6.44;91.20;98605.34;4912617;29;20049;-88
2022/12/18 04:32:18;;;;;;;0.80;0.80;;;;;;;-6.48;91.48;98603.97;4897018;29;20152;-88
2022/12/18 04:34:48;;;;;;;0.80;0.80;;;;;;;-6.45;91.66;98608.94;4911740;29;20067;-87
2022/12/18 04:37:15;;;;;;;0.70;0.70;;;;;;;-6.47;91.61;98610.88;4897721;29;20508;-88
2022/12/18 04:39:43;;;;;;;0.73;0.73;;;;;;;-6.56;91.63;98589.78;4880343;29;20103;-87
2022/12/18 04:42:19;;;;;;;0.77;0.77;;;;;;;-6.45;91.58;98608.94;4909560;29;20463;-88
2022/12/18 04:44:46;;;;;;;0.80;0.80;;;;;;;-6.47;91.43;98613.50;4895709;29;20084;-88
2022/12/18 04:47:13;;;;;;;0.70;0.70;;;;;;;-6.60;91.44;98592.84;4896199;29;20051;-87
2022/12/18 04:49:40;;;;;;;0.70;0.70;;;;;;;-6.53;91.70;98612.31;4910998;29;20158;-88
2022/12/18 04:52:07;;;;;;;0.90;0.90;;;;;;;-6.49;91.65;98618.09;4899605;29;20614;-88
2022/12/18 04:54:34;;;;;;;0.77;0.77;;;;;;;-6.49;91.32;98615.44;4899010;29;20526;-88
2022/12/18 04:57:04;;;;;;;0.60;0.60;;;;;;;-6.59;91.11;98599.75;4897694;29;20140;-87
2022/12/18 04:59:31;;;;;;;0.70;0.70;;;;;;;-6.63;90.70;98604.47;4911272;29;20538;-86
2022/12/18 05:01:58;;;;;;;0.75;0.75;;;;;;;-6.63;90.74;98611.53;4896602;29;20052;-88
2022/12/18 05:04:26;;;;;;;0.80;0.80;;;;;;;-6.65;90.77;98618.72;4897065;29;20124;-87
2022/12/18 05:06:54;;;;;;;0.80;0.80;;;;;;;-6.63;90.75;98617.59;4911247;29;20117;-88
2022/12/18 05:09:21;;;;;;;0.80;0.80;;;;;;;-6.66;90.76;98628.38;4897306;29;20077;-87
2022/12/18 05:11:48;;;;;;;0.98;0.98;;;;;;;-6.65;90.77;98624.78;4911205;29;20071;-88
2022/12/18 05:14:15;;;;;;;0.70;0.70;;;;;;;-6.66;90.41;98625.75;4895824;29;20048;-88
2022/12/18 05:16:42;;;;;;;0.80;0.80;;;;;;;-6.73;90.34;98627.31;4895517;29;20056;-87
2022/12/18 05:19:09;;;;;;;0.90;0.90;;;;;;;-6.76;90.22;98643.31;4902886;29;20045;-87
2022/12/18 05:21:37;;;;;;;0.75;0.75;;;;;;;-6.69;90.09;98673.28;4906454;29;20170;-87
2022/12/18 05:24:04;;;;;;;0.82;0.82;;;;;;;-6.68;90.03;98664.44;4897580;29;20869;-87
2022/12/18 05:26:31;;;;;;;0.90;0.90;;;;;;;-6.67;90.20;98676.59;4896242;29;20048;-86
2022/12/18 05:28:59;;;;;;;0.80;0.80;;;;;;;-6.62;90.17;98681.41;4896458;29;20049;-86
2022/12/18 05:31:25;;;;;;;1.02;1.02;;;;;;;-6.62;90.05;98678.78;4897747;29;20057;-89
2022/12/18 05:33:53;;;;;;;0.90;0.90;;;;;;;-6.63;90.10;98679.78;4903352;29;20071;-92
2022/12/18 05:36:20;;;;;;;0.80;0.80;;;;;;;-6.63;89.79;98679.78;4918826;29;20033;-90
2022/12/18 05:38:51;;;;;;;0.77;0.77;;;;;;;-6.68;89.69;98697.72;4909752;29;20091;-93
2022/12/18 05:41:17;;;;;;;1.05;1.05;;;;;;;-6.65;89.69;98700.09;4892322;29;20145;-91
2022/12/18 05:43:46;;;;;;;0.80;0.80;;;;;;;-6.65;89.96;98697.47;4912102;29;20492;-93
2022/12/18 05:46:27;;;;;;;0.93;0.93;;;;;;;-6.65;89.91;98707.97;4893468;29;20052;-93
2022/12/18 05:48:55;;;;;;;0.70;0.70;;;;;;;-6.69;89.97;98703.94;4908518;29;20044;-95
2022/12/18 05:51:40;;;;;;;0.85;0.85;;;;;;;-6.73;89.77;98694.69;4866824;29;20063;-89
2022/12/18 05:54:08;;;;;;;0.80;0.80;;;;;;;-6.65;89.91;98702.72;4888726;29;20063;-91
2022/12/18 05:56:37;;;;;;;0.70;0.70;;;;;;;-6.65;90.17;98714.03;4914639;29;20032;-94
2022/12/18 05:59:17;;;;;;;0.98;0.98;;;;;;;-6.66;89.87;98729.91;4919309;29;20036;-90
2022/12/18 06:05:08;;;;;;;0.80;0.80;;;;;;;-6.68;89.97;98719.56;4968228;29;20066;-93
2022/12/18 06:07:53;;;;;;;0.82;0.82;;;;;;;-6.74;89.43;98728.00;4930468;29;20054;-90
2022/12/18 06:10:20;;;;;;;0.70;0.70;;;;;;;-6.68;89.75;98737.94;4959390;29;20111;-91
2022/12/18 06:12:54;;;;;;;0.80;0.80;;;;;;;-6.82;89.85;98720.00;4923407;29;20134;-92
2022/12/18 06:15:21;;;;;;;0.90;0.90;;;;;;;-6.81;89.87;98725.13;4942022;29;20047;-92
2022/12/18 06:18:05;;;;;;;0.80;0.80;;;;;;;-6.60;89.94;98759.06;4916357;29;20048;-92
2022/12/18 06:20:39;;;;;;;0.70;0.70;;;;;;;-6.66;89.85;98725.50;4935565;29;20047;-91
2022/12/18 06:23:09;;;;;;;0.90;0.90;;;;;;;-6.66;89.70;98735.16;4945389;29;20388;-91
2022/12/18 06:25:39;;;;;;;0.80;0.80;;;;;;;-6.69;89.64;98757.25;4949264;29;20121;-90
2022/12/18 06:28:09;;;;;;;0.75;0.75;;;;;;;-6.66;89.81;98759.63;4908452;29;20048;-91
2022/12/18 06:30:38;;;;;;;0.80;0.80;;;;;;;-6.63;89.45;98776.91;4960356;29;20456;-92
2022/12/18 06:33:13;;;;;;;0.68;0.68;;;;;;;-6.65;89.28;98776.19;4968236;28;20042;-90
2022/12/18 06:36:07;;;;;;;0.80;0.80;;;;;;;-6.55;89.23;98798.84;4944687;28;20024;-91
2022/12/18 06:38:36;;;;;;;0.73;0.73;;;;;;;-6.70;88.89;98802.03;4935972;28;20035;-91
2022/12/18 06:41:14;;;;;;;0.80;0.80;;;;;;;-6.61;88.89;98833.53;4939437;29;20055;-95
2022/12/18 06:43:51;;;;;;;0.60;0.60;;;;;;;-6.58;88.95;98809.63;4959986;29;20148;-90
2022/12/18 06:46:26;;;;;;;0.90;0.90;;;;;;;-6.51;88.72;98825.63;4947064;28;20056;-93
2022/12/18 06:48:58;;;;;;;0.90;0.90;;;;;;;-6.52;88.65;98815.28;4960796;28;20091;-89
2022/12/18 06:51:26;;;;;;;0.70;0.70;;;;;;;-6.46;88.58;98833.09;4949218;29;20519;-91
2022/12/18 06:53:56;;;;;;;0.80;0.80;;;;;;;-6.49;88.46;98830.75;4905784;29;20111;-91
2022/12/18 06:56:34;;;;;;;0.90;0.90;;;;;;;-6.51;88.48;98819.56;4928415;29;20055;-93
2022/12/18 06:59:01;;;;;;;0.73;0.73;;;;;;;-6.37;88.13;98834.88;4925136;29;20056;-88
2022/12/18 07:01:33;;;;;;;0.90;0.90;;;;;;;-6.52;87.92;98821.38;4940056;29;20047;-89
2022/12/18 07:04:01;;;;;;;0.73;0.73;;;;;;;-6.35;87.46;98856.59;4939171;29;20115;-90
2022/12/18 07:06:30;;;;;;;0.95;0.95;;;;;;;-6.34;87.49;98847.72;4907093;29;20051;-88
2022/12/18 07:09:12;;;;;;;0.88;0.88;;;;;;;-6.35;87.18;98839.03;4939776;29;20062;-89
2022/12/18 07:11:39;;;;;;;0.80;0.80;;;;;;;-6.15;87.04;98852.97;4935696;29;20055;-89
2022/12/18 07:14:07;;;;;;;0.70;0.70;;;;;;;-6.02;86.77;98867.59;4939275;29;20064;-90
2022/12/18 07:16:41;;;;;;;0.70;0.70;;;;;;;-6.02;86.54;98878.09;4922592;29;20058;-89
2022/12/18 07:19:10;;;;;;;0.63;0.63;;;;;;;-6.13;86.18;98858.06;4909834;29;20058;-89
2022/12/18 07:21:39;;;;;;;0.80;0.80;;;;;;;-6.02;86.06;98878.09;4959419;28;20477;-89
2022/12/18 07:24:07;;;;;;;0.80;0.80;;;;;;;-6.08;85.55;98878.66;4940427;29;20057;-87
2022/12/18 07:26:34;;;;;;;0.70;0.70;;;;;;;-6.11;85.47;98864.00;4957089;28;20045;-88
2022/12/18 07:29:01;;;;;;;0.85;0.85;;;;;;;-6.11;84.76;98872.69;4973073;28;20055;-90
2022/12/18 07:31:29;;;;;;;0.90;0.90;;;;;;;-6.14;84.79;98880.88;4939732;28;20110;-89
2022/12/18 07:33:57;;;;;;;0.80;0.80;;;;;;;-6.19;84.47;98877.84;4955618;29;20051;-87
2022/12/18 07:36:24;;;;;;;0.60;0.60;;;;;;;-6.21;84.01;98879.78;4959913;29;20059;-88
2022/12/18 07:38:52;;;;;;;0.70;0.70;;;;;;;-6.29;83.75;98892.78;4957661;29;20053;-86
2022/12/18 07:41:20;;;;;;;0.82;0.82;;;;;;;-6.41;83.52;98889.47;4924045;29;20150;-87
2022/12/18 07:43:48;;;;;;;0.65;0.65;;;;;;;-6.42;83.47;98906.22;4577622;29;10000237;-86
2022/12/18 07:46:18;;;;;;;0.85;0.85;;;;;;;-6.36;83.52;98891.69;4940430;29;20431;-91
2022/12/18 07:48:45;;;;;;;0.82;0.82;;;;;;;-6.24;83.70;98898.44;4938129;29;20084;-89
2022/12/18 07:51:15;;;;;;;0.82;0.82;;;;;;;-6.20;83.68;98897.22;4933747;29;20418;-88
2022/12/18 07:53:43;;;;;;;0.90;0.90;;;;;;;-6.11;83.33;98906.84;4922668;29;20085;-88
2022/12/18 07:56:12;;;;;;;0.90;0.90;;;;;;;-6.09;82.74;98916.41;4941683;29;20048;-87
2022/12/18 07:58:58;;;;;;;0.80;0.80;;;;;;;-6.08;82.92;98920.69;4920457;29;20099;-90
2022/12/18 08:01:27;;;;;;;0.80;0.80;;;;;;;-6.08;82.63;98932.03;4933602;29;20056;-89
2022/12/18 08:03:55;;;;;;;0.70;0.70;;;;;;;-6.08;82.25;98941.72;4933424;29;20079;-88
2022/12/18 08:06:23;;;;;;;0.68;0.68;;;;;;;-6.08;82.25;98954.84;4934238;29;20059;-88
2022/12/18 08:08:55;;;;;;;0.70;0.70;;;;;;;-6.02;82.35;98960.38;4934219;29;20075;-89
2022/12/18 08:11:47;;;;;;;0.70;0.70;;;;;;;-6.04;81.78;98959.69;4933451;29;20056;-89
2022/12/18 08:14:15;;;;;;;0.90;0.90;;;;;;;-6.04;81.82;98954.44;4938533;29;20058;-89
2022/12/18 08:16:42;;;;;;;0.70;0.70;;;;;;;-6.04;81.33;98949.19;4933755;29;20048;-90
2022/12/18 08:19:10;;;;;;;0.73;0.73;;;;;;;-6.02;81.33;98949.88;4935919;29;20494;-90
2022/12/18 08:21:39;;;;;;;0.80;0.80;;;;;;;-6.02;81.34;98946.41;4935987;29;20132;-90
2022/12/18 08:24:09;;;;;;;0.80;0.80;;;;;;;-6.00;81.36;98953.19;4933185;29;20115;-88
2022/12/18 08:26:36;;;;;;;0.80;0.80;;;;;;;-6.03;81.07;98971.84;4928247;29;20055;-86
2022/12/18 08:29:04;;;;;;;0.80;0.80;;;;;;;-5.98;81.24;98981.94;4882782;29;20061;-87
2022/12/18 08:31:32;;;;;;;0.68;0.68;;;;;;;-6.05;81.24;98972.94;4901953;29;20076;-87
2022/12/18 08:34:00;;;;;;;0.80;0.80;;;;;;;-6.02;81.15;98975.31;4933000;29;20134;-88
2022/12/18 08:36:27;;;;;;;0.80;0.80;;;;;;;-5.99;81.21;98982.94;4937167;29;20067;-88
2022/12/18 08:38:56;;;;;;;0.73;0.73;;;;;;;-5.98;80.96;98981.94;4943207;29;20052;-88
2022/12/18 08:41:29;;;;;;;0.82;0.82;;;;;;;-5.97;81.12;98978.38;4933588;29;20071;-89
2022/12/18 08:46:45;;;;;;;0.80;0.80;;;;;;;-5.95;81.21;98984.28;4926184;29;20051;-87
2022/12/18 08:49:17;;;;;;;0.73;0.73;;;;;;;-6.02;80.97;98972.69;4920388;29;20052;-88
2022/12/18 08:51:45;;;;;;;0.90;0.90;;;;;;;-5.90;81.33;98982.03;4885880;29;20479;-89
2022/12/18 08:54:13;;;;;;;0.82;0.82;;;;;;;-5.89;81.43;98979.28;4923427;29;20123;-88
2022/12/18 08:56:40;;;;;;;0.80;0.80;;;;;;;-5.89;80.87;98983.72;4919774;29;20471;-88
2022/12/18 08:59:08;;;;;;;0.70;0.70;;;;;;;-5.87;81.00;98981.78;4936772;29;20055;-88
2022/12/18 09:01:48;;;;;;;0.90;0.90;;;;;;;-5.82;80.86;98992.69;4908417;29;20056;-89
2022/12/18 09:04:17;;;;;;;0.80;0.80;;;;;;;-5.80;80.37;99003.88;4954263;23;20052;-87
2022/12/18 09:06:44;;;;;;;0.80;0.80;;;;;;;-5.81;80.81;99015.38;4934447;29;20063;-88
2022/12/18 09:09:11;;;;;;;0.90;0.90;;;;;;;-5.72;80.86;99021.59;4948024;29;20063;-89
2022/12/18 09:11:38;;;;;;;0.70;0.70;;;;;;;-5.84;80.44;99018.28;4937839;29;20142;-89
2022/12/18 09:14:06;;;;;;;0.85;0.85;;;;;;;-5.76;80.87;99033.38;4940938;29;20052;-88
2022/12/18 09:16:34;;;;;;;0.82;0.82;;;;;;;-5.70;80.89;99024.91;4909143;29;20527;-88
2022/12/18 09:19:05;;;;;;;1.00;1.00;;;;;;;-5.67;80.53;99029.91;4937916;29;20106;-88
2022/12/18 09:21:34;;;;;;;0.70;0.70;;;;;;;-5.75;80.67;99029.75;4933802;29;20051;-88
2022/12/18 09:24:03;;;;;;;0.88;0.88;;;;;;;-5.71;80.78;99028.53;4921336;29;20051;-87
2022/12/18 09:26:34;;;;;;;0.60;0.60;;;;;;;-5.60;80.75;99046.75;4938847;29;20067;-87
2022/12/18 09:29:02;;;;;;;0.77;0.77;;;;;;;-5.61;80.97;99054.81;4938445;29;20062;-89
2022/12/18 09:36:09;;;;;;;0.77;0.77;;;;;;;-5.58;80.82;99051.88;4926416;29;20052;-88
2022/12/18 09:38:37;;;;;;;0.90;0.90;;;;;;;-5.61;80.95;99065.31;4928403;28;20048;-89
2022/12/18 09:41:26;;;;;;;0.70;0.70;;;;;;;-5.57;81.15;99070.16;4906402;29;20032;-87
2022/12/18 09:44:05;;;;;;;0.70;0.70;;;;;;;-5.70;81.49;99046.78;4930539;28;20071;-90
2022/12/18 09:46:39;;;;;;;0.70;0.70;;;;;;;-5.51;81.69;99076.66;4902998;29;20076;-88
2022/12/18 09:49:20;;;;;;;0.80;0.80;;;;;;;-5.48;81.55;99065.84;4894883;29;20095;-90
2022/12/18 09:55:40;;;;;;;0.80;0.80;;;;;;;-5.61;81.57;99060.06;4909630;29;20052;-85
2022/12/18 09:58:36;;;;;;;0.73;0.73;;;;;;;-5.51;81.45;99074.84;4916487;29;20068;-86
2022/12/18 10:01:10;;;;;;;0.85;0.85;;;;;;;-5.73;81.44;99049.69;4925133;29;20471;-89
2022/12/18 10:03:38;;;;;;;0.82;0.82;;;;;;;-5.56;82.00;99087.59;4902853;29;20583;-88
2022/12/18 10:06:15;;;;;;;0.90;0.90;;;;;;;-5.49;82.10;99080.00;4903263;29;20052;-89
2022/12/18 10:08:51;;;;;;;0.80;0.80;;;;;;;-5.40;82.28;99091.44;4893692;29;20053;-87
2022/12/18 10:11:39;;;;;;;1.00;1.00;;;;;;;-5.38;82.19;99090.34;4892651;29;20116;-86
2022/12/18 10:14:16;;;;;;;0.88;0.88;;;;;;;-5.50;82.14;99099.34;4907330;29;20048;-87
2022/12/18 10:16:50;;;;;;;0.90;0.90;;;;;;;-5.50;82.44;99089.66;4920664;23;20637;-85
2022/12/18 10:19:53;;;;;;;0.75;0.75;;;;;;;-5.52;82.88;99074.97;4912967;29;20059;-88
2022/12/18 10:22:49;;;;;;;0.75;0.75;;;;;;;-5.44;82.87;99085.66;4925641;29;20036;-93
2022/12/18 10:26:11;;;;;;;0.88;0.88;;;;;;;-5.65;82.83;99075.28;4939335;29;20058;-90
2022/12/18 10:28:40;;;;;;;0.90;0.90;;;;;;;-5.67;83.12;99091.22;4957128;29;20472;-89
2022/12/18 10:31:19;;;;;;;0.70;0.70;;;;;;;-5.64;83.59;99089.28;4926531;29;20059;-92
2022/12/18 10:33:50;;;;;;;0.77;0.77;;;;;;;-5.59;83.92;99100.22;4934437;29;20048;-89
2022/12/18 10:36:39;;;;;;;0.80;0.80;;;;;;;-5.49;83.98;99101.84;4914811;29;20060;-91
2022/12/18 10:39:22;;;;;;;0.70;0.70;;;;;;;-5.58;84.13;99123.72;4904601;29;20052;-87
2022/12/18 10:41:51;;;;;;;0.77;0.77;;;;;;;-5.68;84.37;99107.13;4916088;29;20546;-88
2022/12/18 10:44:22;;;;;;;0.80;0.80;;;;;;;-5.57;84.64;99122.75;4938204;29;20052;-88
2022/12/18 10:47:04;;;;;;;1.00;1.00;;;;;;;-5.53;84.79;99141.72;4928941;29;20115;-89
2022/12/18 10:49:55;;;;;;;0.80;0.80;;;;;;;-5.74;84.67;99140.06;4910442;23;21685;-90
2022/12/18 10:56:03;;;;;;;0.60;0.60;;;;;;;-5.75;85.11;99169.91;5402097;23;20089;-86
2022/12/18 10:58:34;;;;;;;0.80;0.80;;;;;;;-5.87;84.92;99155.25;4876474;29;20053;-87
2022/12/18 11:01:06;;;;;;;0.80;0.80;;;;;;;-5.79;84.92;99163.28;4882943;29;20082;-88
2022/12/18 11:03:36;;;;;;;0.70;0.70;;;;;;;-5.79;85.25;99162.47;4899245;29;20131;-90
2022/12/18 11:06:09;;;;;;;0.73;0.73;;;;;;;-5.73;85.16;99161.91;4894769;29;20576;-90
2022/12/18 11:08:37;;;;;;;0.75;0.75;;;;;;;-5.78;85.29;99157.06;4891924;29;20056;-91
2022/12/18 11:11:21;;;;;;;0.77;0.77;;;;;;;-5.86;85.54;99146.41;4870459;29;20061;-91
2022/12/18 11:14:18;;;;;;;0.70;0.70;;;;;;;-5.85;85.89;99149.84;4868640;29;20249;-88
2022/12/18 11:16:49;;;;;;;0.75;0.75;;;;;;;-5.81;85.81;99156.50;4904085;29;20167;-91
2022/12/18 11:19:42;;;;;;;0.77;0.77;;;;;;;-5.87;85.83;99157.88;4902812;29;20072;-89
2022/12/18 11:22:33;;;;;;;0.63;0.63;;;;;;;-5.92;86.18;99166.19;4905292;29;20037;-89
2022/12/18 11:25:15;;;;;;;0.60;0.60;;;;;;;-6.03;86.28;99176.00;4869484;29;20528;-90
2022/12/18 11:28:36;;;;;;;0.75;0.75;;;;;;;-6.08;86.73;99172.94;4895295;29;20056;-88
2022/12/18 11:31:27;;;;;;;0.70;0.70;;;;;;;-6.05;86.81;99191.06;4899814;29;20453;-88
2022/12/18 11:34:10;;;;;;;0.82;0.82;;;;;;;-6.07;87.14;99193.84;4899241;29;20099;-88
2022/12/18 11:37:00;;;;;;;1.00;1.00;;;;;;;-6.16;87.10;99195.44;4889502;29;20147;-90
2022/12/18 11:39:33;;;;;;;0.95;0.95;;;;;;;-6.14;87.33;99190.91;4888743;29;20068;-91
2022/12/18 11:42:34;;;;;;;0.80;0.80;;;;;;;-6.22;87.48;99192.53;4905629;29;20060;-89
2022/12/18 11:45:13;;;;;;;0.85;0.85;;;;;;;-6.10;87.59;99212.50;4899186;29;20052;-91
2022/12/18 11:48:05;;;;;;;0.70;0.70;;;;;;;-6.14;87.33;99219.81;4904605;29;20053;-90
2022/12/18 11:51:02;;;;;;;0.73;0.73;;;;;;;-6.14;87.03;99219.81;4909905;29;20120;-94
2022/12/18 11:53:48;;;;;;;0.60;0.60;;;;;;;-6.33;87.04;99211.84;4886705;29;20147;-89
2022/12/18 11:56:28;;;;;;;0.75;0.75;;;;;;;-6.27;87.09;99221.00;4915553;29;20084;-89
2022/12/18 11:59:25;;;;;;;0.85;0.85;;;;;;;-6.11;87.06;99237.91;4926241;29;20058;-90
2022/12/18 12:02:16;;;;;;;0.70;0.70;;;;;;;-6.06;87.25;99241.97;4945168;29;20478;-90
2022/12/18 12:04:55;;;;;;;0.70;0.70;;;;;;;-6.11;86.99;99251.06;4934020;29;20147;-90
2022/12/18 12:07:34;;;;;;;1.00;1.00;;;;;;;-6.18;87.03;99247.31;4920448;29;20095;-90
2022/12/18 12:10:25;;;;;;;0.80;0.80;;;;;;;-6.19;87.47;99263.22;4939236;29;20048;-91
2022/12/18 12:13:03;;;;;;;0.82;0.82;;;;;;;-6.07;87.70;99272.66;4907411;29;20056;-90
2022/12/18 12:15:44;;;;;;;0.90;0.90;;;;;;;-6.12;87.36;99280.94;4917178;29;20052;-90
2022/12/18 12:19:00;;;;;;;0.82;0.82;;;;;;;-6.12;87.70;99280.13;4924137;29;20147;-93
2022/12/18 12:21:39;;;;;;;0.60;0.60;;;;;;;-6.28;87.46;99261.34;4892338;29;20056;-88
2022/12/18 12:24:22;;;;;;;0.80;0.80;;;;;;;-6.18;87.43;99289.34;4863889;29;20065;-88
2022/12/18 12:26:59;;;;;;;0.73;0.73;;;;;;;-6.19;87.49;99287.69;4894755;29;20476;-87